ePrivacy and GPDR Cookie Consent by Cookie Consent
EmailTwitter


Observations de surface / France / LFBD (07510)

Régions: Québec | Canada | États-Unis | Europe | France | UK | Ailleurs
Station
Affichage
Infos & localisation pour LFBD (07510) | Aide pour décoder les METARs

Observations prises le 2022-06-25 à 01H00 UTC à BORDEAUX/MERIGNA, FR (LFBD)

Température: 17.0 Celsius

Point de rosée: 14.0 Celsius

Humidité relative: 82%

Vents: Calme à 0 km/h ou 0 noeuds.

Pression au niveau moyen de la mer: 101.30 kilopascals.

Observation METAR:

LFBD 250100Z AUTO 00000KT CAVOK 17/14 Q1013 TEMPO 4000 -RA BKN012=